Aviation Digital Data Service (ADDS)

Output produced by METARs form (1846 UTC 18 June 2019)
found at http://www.aviationweather.gov/metar/data/
 
KABR 181753Z AUTO 10SM SCT048 22/09 A3001 RMK AO2 SLP158 T02220094 10222 20128 56016
KABR 181732Z 1818/1918 34007KT P6SM FEW040 BKN200 
     FM191100 VRB03KT P6SM VCSH BKN100 
     FM191600 14007KT P6SM OVC060
       
KBKX 181756Z AUTO 04007KT 10SM FEW001 SCT039 20/12 A3000 RMK AO2 SLP171 6//// T02000117 10200 20111 58010
K9V9 181835Z AUTO 17004KT 10SM SCT046 24/15 A3000 RMK AO2 T02390145
KCUT 181829Z AUTO VRB03KT 10SM BKN024 OVC033 15/09 A3008 RMK AO2 T01500094
KD07 181756Z AUTO 18010G17KT 22/14 A2999 RMK AO1 SLP147 T02170144 10222 20139 56013
KHON 181755Z AUTO 01010KT 10SM CLR 23/11 A3000 RMK AO2 SLP156 T02280106 10228 20117 56012
KHON 181720Z 1818/1918 02007KT P6SM SCT100 
     FM190400 VRB03KT P6SM BKN050 
     FM191300 15007KT P6SM SCT070 BKN200
       
KMDS 181840Z AUTO 05005G15KT 020V180 10SM FEW050 20/12 A3000 RMK AO2
KMHE 181753Z AUTO 03006KT 10SM CLR 23/12 A3000 RMK AO2 SLP156 T02330117 10233 20122 56011
KMBG 181752Z AUTO 13005KT 10SM FEW050 SCT060 BKN080 22/12 A2999 RMK AO2 SLP149 T02170117 10217 20144 56015
KMBG 181732Z 1818/1918 11007KT P6SM SCT045 BKN070 
     FM190700 11007KT P6SM VCSH BKN120 
     FM191100 12008KT 6SM -SHRA BKN060 
     FM191400 14010KT 6SM -SHRA OVC035
       
KPHP 181755Z AUTO 15008G14KT 10SM SCT039 23/13 A2999 RMK AO2 SLP145 T02330133 10233 20083 56013
KPIR 181753Z AUTO VRB03KT 10SM FEW046 SCT095 23/12 A2999 RMK AO2 SLP148 T02280117 10228 20106 56015
KPIR 181732Z 1818/1918 19005KT P6SM FEW035 OVC100 
     FM182200 13007KT P6SM SCT060 BKN120 
     FM190800 12005KT P6SM VCSH BKN120 
     FM191200 13007KT P6SM OVC080 
     FM191700 16010KT P6SM BKN080
       
KIEN 181752Z AUTO VRB05KT 10SM SCT032 22/13 A3003 RMK AO2 SLP149 T02170128 10222 20111 56012
KRAP 181752Z 16009KT 130V190 10SM FEW023 BKN090 21/14 A3000 RMK AO2 SLP147 T02060144 10211 20089 58014
KRAP 181720Z 1818/1918 17008KT P6SM SCT030 SCT100 
     TEMPO 1820/1824 -TSRA BKN060CB 
     FM190000 15010KT P6SM VCTS BKN050CB 
     FM190400 18010KT P6SM BKN150
       
KFSD 181756Z 36008KT 10SM FEW045 BKN250 23/11 A2999 RMK AO2 SLP149 6//// T02280106 10228 20161 58010 $
KFSD 181720Z 1818/1918 03007KT P6SM FEW040 BKN250 
     FM190100 VRB03KT P6SM SCT200 
     FM191500 11005KT P6SM BKN150
       
K8D3 181756Z AUTO 32008KT 21/11 A2998 RMK AO1 SLP144 T02110111 10217 20133 56015
KSPF 181835Z AUTO 11010KT 10SM CLR 21/13 A3000 RMK AO2 LTG DSNT W
KATY 181753Z AUTO 33007KT 310V020 10SM FEW041 21/12 A3000 RMK AO2 SLP155 T02110117 56013
KATY 181732Z 1818/1918 35006KT P6SM FEW040 SCT080 
     FM190000 01005KT P6SM FEW045 SCT120 
     FM191100 VRB03KT P6SM BKN120 
     FM191700 14006KT P6SM BKN060
       
KICR 181753Z AUTO 14005KT 10SM FEW039 22/12 A3002 RMK AO2 SLP157 T02220117 10228 20111 56007
KYKN 181756Z AUTO 04010KT 010V070 10SM CLR 23/11 A2999 RMK AO2 SLP160 T02330106 10233 20183 58009